Time,TemperatureF,DewpointF,PressureIn,WindDirection,WindDirectionDegrees,WindSpeedMPH,WindSpeedGustMPH,Humidity,HourlyPrecipIn,Conditions,Clouds,dailyrainin,SoftwareType,DateUTC
2013-07-06 00:03:00,67.5,67.2,30.12,SW,225,0.0,-999.0,99,-99.99,,,0.00,Acu-Link.com,2013-07-06 04:03:00,
2013-07-06 00:18:00,67.5,67.2,30.13,ESE,112,0.0,-999.0,99,-99.99,,,0.06,Acu-Link.com,2013-07-06 04:18:00,
2013-07-06 00:34:00,67.5,67.2,30.12,WSW,247,0.0,-999.0,99,-99.99,,,0.20,Acu-Link.com,2013-07-06 04:34:00,
2013-07-06 00:49:00,67.5,67.2,30.12,ENE,67,0.0,-999.0,99,-99.99,,,0.23,Acu-Link.com,2013-07-06 04:49:00,
2013-07-06 01:04:00,67.3,67.0,30.12,East,90,0.0,-999.0,99,-99.99,,,0.26,Acu-Link.com,2013-07-06 05:04:00,
2013-07-06 01:19:00,66.9,66.6,30.11,NNE,22,0.0,-999.0,99,-99.99,,,0.27,Acu-Link.com,2013-07-06 05:19:00,
2013-07-06 01:35:00,66.4,66.1,30.11,South,180,0.0,-999.0,99,-99.99,,,0.27,Acu-Link.com,2013-07-06 05:35:00,
2013-07-06 01:50:00,66.2,65.9,30.10,WNW,292,0.0,-999.0,99,-99.99,,,0.27,Acu-Link.com,2013-07-06 05:50:00,
2013-07-06 02:05:00,66.2,65.9,30.11,SE,135,0.0,-999.0,99,-99.99,,,0.27,Acu-Link.com,2013-07-06 06:05:00,
2013-07-06 02:20:00,66.2,65.9,30.10,NE,45,0.0,-999.0,99,-99.99,,,0.31,Acu-Link.com,2013-07-06 06:20:00,
2013-07-06 02:36:00,66.2,65.9,30.10,NNW,337,0.0,-999.0,99,-99.99,,,0.31,Acu-Link.com,2013-07-06 06:36:00,
2013-07-06 02:51:00,66.2,65.9,30.09,WNW,292,0.0,-999.0,99,-99.99,,,0.31,Acu-Link.com,2013-07-06 06:51:00,
2013-07-06 03:06:00,66.2,65.9,30.09,West,270,0.0,-999.0,99,-99.99,,,0.31,Acu-Link.com,2013-07-06 07:06:00,
2013-07-06 03:22:00,66.2,65.9,30.10,West,270,0.0,-999.0,99,-99.99,,,0.42,Acu-Link.com,2013-07-06 07:22:00,
2013-07-06 03:37:00,66.2,65.9,30.09,ENE,67,0.0,-999.0,99,-99.99,,,0.43,Acu-Link.com,2013-07-06 07:37:00,
2013-07-06 03:52:00,66.2,65.9,30.09,WSW,247,0.0,-999.0,99,-99.99,,,0.44,Acu-Link.com,2013-07-06 07:52:00,
2013-07-06 04:07:00,66.4,66.1,30.09,NNW,337,0.0,-999.0,99,-99.99,,,0.49,Acu-Link.com,2013-07-06 08:07:00,
2013-07-06 04:22:00,66.4,66.1,30.09,West,270,1.1,-999.0,99,-99.99,,,0.60,Acu-Link.com,2013-07-06 08:22:00,
2013-07-06 04:37:00,66.2,65.9,30.09,ENE,67,0.0,-999.0,99,-99.99,,,0.65,Acu-Link.com,2013-07-06 08:37:00,
2013-07-06 04:52:00,66.2,65.9,30.08,WNW,292,0.0,-999.0,99,-99.99,,,0.80,Acu-Link.com,2013-07-06 08:52:00,
2013-07-06 05:07:00,66.2,65.9,30.09,West,270,0.0,-999.0,99,-99.99,,,0.83,Acu-Link.com,2013-07-06 09:07:00,
2013-07-06 05:22:00,66.2,65.9,30.08,West,270,0.0,-999.0,99,-99.99,,,0.87,Acu-Link.com,2013-07-06 09:22:00,
2013-07-06 05:37:00,66.2,65.9,30.09,West,270,0.0,-999.0,99,-99.99,,,0.87,Acu-Link.com,2013-07-06 09:37:00,
2013-07-06 05:53:00,66.2,65.9,30.09,West,270,0.0,-999.0,99,-99.99,,,0.90,Acu-Link.com,2013-07-06 09:53:00,
2013-07-06 06:08:00,66.2,65.9,30.10,WNW,292,0.0,-999.0,99,-99.99,,,1.10,Acu-Link.com,2013-07-06 10:08:00,
2013-07-06 06:23:00,66.2,65.9,30.10,WNW,292,2.7,-999.0,99,-99.99,,,1.45,Acu-Link.com,2013-07-06 10:23:00,
2013-07-06 06:39:00,66.2,65.9,30.10,ESE,112,0.0,-999.0,99,-99.99,,,1.46,Acu-Link.com,2013-07-06 10:39:00,
2013-07-06 06:54:00,66.2,65.9,30.11,NE,45,1.1,-999.0,99,-99.99,,,1.46,Acu-Link.com,2013-07-06 10:54:00,
2013-07-06 07:09:00,66.2,65.9,30.11,East,90,0.0,-999.0,99,-99.99,,,1.46,Acu-Link.com,2013-07-06 11:09:00,
2013-07-06 07:25:00,66.2,65.9,30.11,WNW,292,2.7,-999.0,99,-99.99,,,1.46,Acu-Link.com,2013-07-06 11:25:00,
2013-07-06 07:40:00,66.4,66.1,30.11,ESE,112,0.0,-999.0,99,-99.99,,,1.46,Acu-Link.com,2013-07-06 11:40:00,
2013-07-06 07:55:00,66.4,66.1,30.12,West,270,0.0,-999.0,99,-99.99,,,1.46,Acu-Link.com,2013-07-06 11:55:00,
2013-07-06 08:10:00,66.7,66.4,30.12,WNW,292,0.0,-999.0,99,-99.99,,,1.46,Acu-Link.com,2013-07-06 12:10:00,
2013-07-06 08:26:00,67.6,67.3,30.12,ESE,112,1.1,-999.0,99,-99.99,,,1.46,Acu-Link.com,2013-07-06 12:26:00,
2013-07-06 08:41:00,68.2,67.9,30.12,ESE,112,1.7,-999.0,99,-99.99,,,1.46,Acu-Link.com,2013-07-06 12:41:00,
2013-07-06 08:56:00,68.5,68.2,30.12,SSW,202,0.0,-999.0,99,-99.99,,,1.46,Acu-Link.com,2013-07-06 12:56:00,
2013-07-06 09:12:00,68.5,68.2,30.12,SSE,157,0.0,-999.0,99,-99.99,,,1.46,Acu-Link.com,2013-07-06 13:12:00,
2013-07-06 09:27:00,68.7,68.4,30.12,West,270,0.0,-999.0,99,-99.99,,,1.48,Acu-Link.com,2013-07-06 13:27:00,
2013-07-06 09:42:00,68.7,68.4,30.12,West,270,0.0,-999.0,99,-99.99,,,1.62,Acu-Link.com,2013-07-06 13:42:00,
2013-07-06 09:58:00,68.4,68.1,30.12,SE,135,1.1,-999.0,99,-99.99,,,1.78,Acu-Link.com,2013-07-06 13:58:00,
2013-07-06 10:13:00,69.3,69.0,30.12,ESE,112,0.0,-999.0,99,-99.99,,,1.90,Acu-Link.com,2013-07-06 14:13:00,
2013-07-06 10:28:00,71.1,70.8,30.11,NNW,337,0.0,-999.0,99,-99.99,,,1.90,Acu-Link.com,2013-07-06 14:28:00,
2013-07-06 10:44:00,71.2,70.9,30.12,West,270,0.0,-999.0,99,-99.99,,,1.90,Acu-Link.com,2013-07-06 14:44:00,
2013-07-06 10:59:00,71.2,70.9,30.12,WSW,247,1.7,-999.0,99,-99.99,,,1.90,Acu-Link.com,2013-07-06 14:59:00,
2013-07-06 11:15:00,71.1,70.5,30.12,ESE,112,2.2,-999.0,98,-99.99,,,1.90,Acu-Link.com,2013-07-06 15:15:00,
2013-07-06 11:30:00,71.4,70.5,30.12,East,90,1.1,-999.0,97,-99.99,,,1.91,Acu-Link.com,2013-07-06 15:30:00,
2013-07-06 11:45:00,71.4,70.8,30.12,SE,135,1.1,-999.0,98,-99.99,,,1.91,Acu-Link.com,2013-07-06 15:45:00,
2013-07-06 12:01:00,72.0,71.4,30.11,East,90,1.1,-999.0,98,-99.99,,,1.91,Acu-Link.com,2013-07-06 16:01:00,
2013-07-06 12:31:00,73.2,71.7,30.11,South,180,2.7,-999.0,95,-99.99,,,1.91,Acu-Link.com,2013-07-06 16:31:00,
2013-07-06 14:02:00,74.3,71.2,30.10,NE,45,1.1,-999.0,90,-99.99,,,1.91,Acu-Link.com,2013-07-06 18:02:00,
2013-07-06 14:18:00,74.7,70.6,30.09,SE,135,1.7,-999.0,87,-99.99,,,1.91,Acu-Link.com,2013-07-06 18:18:00,
2013-07-06 14:33:00,74.1,70.6,30.10,WNW,292,2.7,-999.0,89,-99.99,,,1.91,Acu-Link.com,2013-07-06 18:33:00,
2013-07-06 15:35:00,73.4,70.9,30.07,WNW,292,2.2,-999.0,92,-99.99,,,1.91,Acu-Link.com,2013-07-06 19:35:00,
2013-07-06 15:50:00,74.7,70.2,30.06,NNW,337,2.2,-999.0,86,-99.99,,,1.91,Acu-Link.com,2013-07-06 19:50:00,
2013-07-06 16:06:00,75.7,70.5,30.06,East,90,1.1,-999.0,84,-99.99,,,1.91,Acu-Link.com,2013-07-06 20:06:00,
2013-07-06 16:36:00,74.7,71.6,30.06,ESE,112,0.0,-999.0,90,-99.99,,,1.91,Acu-Link.com,2013-07-06 20:36:00,
2013-07-06 16:52:00,74.1,71.6,30.06,WNW,292,0.0,-999.0,92,-99.99,,,1.91,Acu-Link.com,2013-07-06 20:52:00,
2013-07-06 17:22:00,75.4,72.3,30.06,SE,135,1.1,-999.0,90,-99.99,,,1.91,Acu-Link.com,2013-07-06 21:22:00,
2013-07-06 17:37:00,75.7,72.2,30.05,WSW,247,1.7,-999.0,89,-99.99,,,1.91,Acu-Link.com,2013-07-06 21:37:00,
2013-07-06 18:08:00,75.9,71.7,30.05,West,270,0.0,-999.0,87,-99.99,,,1.91,Acu-Link.com,2013-07-06 22:08:00,
2013-07-06 18:23:00,75.6,72.8,30.04,West,270,0.0,-999.0,91,-99.99,,,1.91,Acu-Link.com,2013-07-06 22:23:00,
2013-07-06 18:39:00,75.6,72.1,30.05,South,180,0.0,-999.0,89,-99.99,,,1.91,Acu-Link.com,2013-07-06 22:39:00,
2013-07-06 18:54:00,75.6,72.1,30.05,East,90,0.0,-999.0,89,-99.99,,,1.91,Acu-Link.com,2013-07-06 22:54:00,
2013-07-06 19:25:00,74.5,71.4,30.05,WSW,247,0.0,-999.0,90,-99.99,,,1.91,Acu-Link.com,2013-07-06 23:25:00,
2013-07-06 19:40:00,73.8,71.0,30.05,East,90,1.1,-999.0,91,-99.99,,,1.91,Acu-Link.com,2013-07-06 23:40:00,
2013-07-06 20:26:00,72.1,68.7,30.05,WNW,292,3.7,-999.0,89,-99.99,,,1.91,Acu-Link.com,2013-07-07 00:26:00,
2013-07-06 20:41:00,71.6,68.5,30.05,NNW,337,3.2,-999.0,90,-99.99,,,1.91,Acu-Link.com,2013-07-07 00:41:00,
2013-07-06 20:56:00,71.1,68.7,30.06,ENE,67,1.7,-999.0,92,-99.99,,,1.91,Acu-Link.com,2013-07-07 00:56:00,
2013-07-06 21:27:00,70.5,69.0,30.06,West,270,1.7,-999.0,95,-99.99,,,1.92,Acu-Link.com,2013-07-07 01:27:00,
2013-07-06 21:58:00,70.0,68.8,30.06,WNW,292,2.2,-999.0,96,-99.99,,,1.93,Acu-Link.com,2013-07-07 01:58:00,
2013-07-06 22:13:00,69.8,69.2,30.08,West,270,0.0,-999.0,98,-99.99,,,1.95,Acu-Link.com,2013-07-07 02:13:00,
2013-07-06 22:43:00,68.9,68.6,30.09,SW,225,2.2,-999.0,99,-99.99,,,2.19,Acu-Link.com,2013-07-07 02:43:00,
2013-07-06 22:59:00,68.7,68.4,30.10,SW,225,0.0,-999.0,99,-99.99,,,2.26,Acu-Link.com,2013-07-07 02:59:00,
2013-07-06 23:14:00,68.7,68.4,30.09,WNW,292,0.0,-999.0,99,-99.99,,,2.33,Acu-Link.com,2013-07-07 03:14:00,
2013-07-06 23:29:00,68.5,68.2,30.09,NNE,22,0.0,-999.0,99,-99.99,,,2.33,Acu-Link.com,2013-07-07 03:29:00,
2013-07-06 23:45:00,68.5,68.2,30.09,NNE,22,0.0,-999.0,99,-99.99,,,2.33,Acu-Link.com,2013-07-07 03:45:00,